Airfield :
LOGIN :

Register | Disclaimer

   EN    FR    IT 

 










Legend :    VFR   Marginal VFR   IFR   Intensive IFR   Very Intensive IFR
Visi :
Ceiling :
>= 8 km
>= 3000ft
5 to 8 km
1000 to 3000 ft
1500m to 5 km
500 to 1000 ft
800 to 1500m
200 to 500 ft
< 800m
< 200 ft
Symbols :   Thunderstorms  Fog  Heavy snow  Heavy precipitations  Wind > 20 kt
SIGMETs :     Misc.  Thunderstorms  Icing  Turbulence  Mountain Waves  Volcanic Ashes






- Airport Elevation : 80 ft
- IATA code : LPL


EGGP - Liverpool John Lennon

CURRENT METAR :
  • 152250Z 17008KT 9999 FEW033 04/04 Q0992

EXPIRED METARs :
  • 152220Z 16008KT 9999 FEW016 SCT031 05/04 Q0992
  • 152150Z 16008KT 9999 FEW013 SCT043 04/04 Q0992
  • 152120Z 17010KT 9999 FEW013 SCT043 05/04 Q0992
  • 152050Z 17010KT 9999 FEW013 SCT035 05/04 Q0992
  • 152020Z 20014KT 9999 SCT035 05/04 Q0992

TAF AMD TAF EGGP
Valid from the 15 at 18:00 until the 16 at 18:00 UTC


151841Z 1518/1618 18009KT 9999 SCT035
TEMPO 1518/1524 18018G28KT
TEMPO 1518/1524 6000 SHRA SHGS BKN014
PROB40
TEMPO 1518/1521 3000 +SHRA
PROB30
TEMPO 1600/1609 6000 SHRA BKN014
ATIS : +44 151 907 2000 (option 5 or ext 5150)
Met : +44 871 750 5150



MET'MAP, your aeronautical weather chart ! - Copyright ORBIFLY December 2007 - Disclaimer

ORBIFLY MET'MAP TEAM :

Programming & Development : Alexandra Zaïnal
Concept & original design : Baudouin d'Aumeries
Assistance for programming : Marc-Olivier Méhu
Technical & hardware support : Manuel Goepfert

Contact : metmap@orbifly.com




SOURCES & CREDITS :

   NOAA